Terminal Aerodrome Forecast
Issued by NWS Twin Cities, MN

Home | Current Version | Previous Version | Text Only | Print | Product List | Glossary Off
Versions: 1 2 3 4 5 6 7 8 9 10 11 12 13 14 15 16 17 18 19 20 21 22 23 24

000
FTUS43 KMPX 181700
TAFMSP
TAF
KMSP 181734Z 1818/1924 25009KT P6SM SCT030 SCT100
      TEMPO 1822/1902 2SM TSRA BKN014CB
     FM190200 27005KT P6SM BKN050
     FM190800 28005KT 4SM BR SCT001 BKN050
      TEMPO 1909/1913 2SM BR BKN001
     FM191500 32008KT P6SM BKN007 BKN015
     FM191900 32010KT P6SM SCT020 BKN050=

USA.gov is the U.S. government's official web portal to all federal, state and local government web resources and services.